createdAt,value
2022-08-11T00:02:50.336Z,81.10
2022-08-11T00:05:20.025Z,81.20
2022-08-11T00:07:48.520Z,81.60
2022-08-11T00:10:18.153Z,81.60
2022-08-11T00:12:58.415Z,81.80
2022-08-11T00:15:26.824Z,81.90
2022-08-11T00:18:01.157Z,82.00
2022-08-11T00:20:33.369Z,82.50
2022-08-11T00:23:07.673Z,82.60
2022-08-11T00:26:01.216Z,82.90
2022-08-11T00:28:35.123Z,83.40
2022-08-11T00:31:08.361Z,83.90
2022-08-11T00:33:44.700Z,83.80
2022-08-11T00:36:23.389Z,84.50
2022-08-11T00:38:53.749Z,84.40
2022-08-11T00:41:29.453Z,85.00
2022-08-11T00:44:37.907Z,85.40
2022-08-11T00:47:33.082Z,86.10
2022-08-11T00:50:18.493Z,85.90
2022-08-11T00:53:10.178Z,86.50
2022-08-11T00:55:43.054Z,87.20
2022-08-11T00:58:29.432Z,87.50
2022-08-11T01:01:18.146Z,88.10
2022-08-11T01:03:51.381Z,88.50
2022-08-11T01:06:36.738Z,89.40
2022-08-11T01:09:46.641Z,89.60
2022-08-11T01:12:32.586Z,90.10
2022-08-11T01:14:59.371Z,90.30
2022-08-11T01:17:52.840Z,90.60
2022-08-11T01:21:01.142Z,90.90
2022-08-11T01:24:07.461Z,91.00
2022-08-11T01:26:55.113Z,90.90
2022-08-11T01:29:52.638Z,91.10
2022-08-11T01:33:04.400Z,91.10
2022-08-11T01:35:37.423Z,91.10
2022-08-11T01:38:28.241Z,91.40
2022-08-11T01:41:18.970Z,91.70
2022-08-11T01:44:36.317Z,92.10
2022-08-11T01:47:38.265Z,92.30
2022-08-11T01:50:31.255Z,92.70
2022-08-11T01:53:21.470Z,93.30
2022-08-11T01:55:59.896Z,93.40
2022-08-11T01:58:46.712Z,93.60
2022-08-11T02:01:36.337Z,94.10
2022-08-11T02:04:12.197Z,94.10
2022-08-11T02:07:02.643Z,94.30
2022-08-11T02:09:49.238Z,94.50
2022-08-11T02:12:32.908Z,94.80
2022-08-11T02:15:24.119Z,94.90
2022-08-11T02:18:13.518Z,95.20
2022-08-11T02:21:16.274Z,95.00
2022-08-11T02:24:10.802Z,95.30
2022-08-11T02:26:56.645Z,95.60
2022-08-11T02:29:45.840Z,95.40
2022-08-11T02:32:42.925Z,95.40
2022-08-11T02:35:35.545Z,95.90
2022-08-11T02:38:43.459Z,96.10
2022-08-11T02:41:36.365Z,96.30
2022-08-11T02:44:09.069Z,96.50
2022-08-11T02:46:50.853Z,96.70
2022-08-11T02:50:06.396Z,96.90
2022-08-11T02:53:06.389Z,97.10
2022-08-11T02:55:57.015Z,97.40
2022-08-11T02:58:39.180Z,97.60
2022-08-11T03:01:16.991Z,97.80
2022-08-11T03:04:37.702Z,98.20
2022-08-11T03:07:28.968Z,98.40
2022-08-11T03:10:25.438Z,98.30
2022-08-11T03:13:41.160Z,98.30
2022-08-11T03:16:45.708Z,98.70
2022-08-11T03:19:18.451Z,98.90
2022-08-11T03:22:10.891Z,99.20
2022-08-11T03:24:48.750Z,98.90
2022-08-11T03:27:21.547Z,99.00
2022-08-11T03:30:14.587Z,99.00
2022-08-11T03:33:09.390Z,99.40
2022-08-11T03:35:54.429Z,99.40
2022-08-11T03:38:30.607Z,99.80
2022-08-11T03:42:03.423Z,99.80
2022-08-11T03:44:37.315Z,99.40
2022-08-11T03:47:24.197Z,99.90
2022-08-11T03:50:20.044Z,99.90
2022-08-11T03:52:53.925Z,99.90
2022-08-11T03:55:21.878Z,99.90
2022-08-11T03:58:15.983Z,99.90
2022-08-11T04:00:57.973Z,99.90
2022-08-11T04:03:31.077Z,99.90
2022-08-11T04:06:09.184Z,99.90
2022-08-11T04:08:55.583Z,99.90
2022-08-11T04:11:40.246Z,99.90
2022-08-11T04:14:44.015Z,99.90
2022-08-11T04:17:28.392Z,99.90
2022-08-11T04:20:10.417Z,99.90
2022-08-11T04:22:55.175Z,99.90
2022-08-11T04:25:30.061Z,99.90
2022-08-11T04:28:50.194Z,99.90
2022-08-11T04:31:50.517Z,99.90
2022-08-11T04:34:33.464Z,99.90
2022-08-11T04:37:34.846Z,99.90
2022-08-11T04:40:27.966Z,99.90
2022-08-11T04:43:22.374Z,99.90
2022-08-11T04:46:26.414Z,99.90
2022-08-11T04:49:36.634Z,99.90
2022-08-11T04:52:59.060Z,99.90
2022-08-11T04:56:18.550Z,99.90
2022-08-11T04:59:19.529Z,99.90
2022-08-11T05:02:16.694Z,99.90
2022-08-11T05:05:22.612Z,99.90
2022-08-11T05:08:26.918Z,99.90
2022-08-11T05:11:23.617Z,99.90
2022-08-11T05:14:23.879Z,99.90
2022-08-11T05:17:10.551Z,99.90
2022-08-11T05:19:56.608Z,99.90
2022-08-11T05:22:48.113Z,99.90
2022-08-11T05:26:43.827Z,99.90
2022-08-11T05:29:19.262Z,99.90
2022-08-11T05:32:14.637Z,99.90
2022-08-11T05:34:54.117Z,99.90
2022-08-11T05:37:29.847Z,99.90
2022-08-11T05:40:24.350Z,99.90
2022-08-11T05:43:15.544Z,99.90
2022-08-11T05:46:04.650Z,99.90
2022-08-11T05:48:55.271Z,99.90
2022-08-11T05:51:55.343Z,99.90
2022-08-11T05:54:46.041Z,99.90
2022-08-11T05:57:45.487Z,99.90
2022-08-11T06:00:10.266Z,99.90
2022-08-11T06:03:04.016Z,99.90
2022-08-11T06:05:38.485Z,99.90
2022-08-11T06:08:13.365Z,99.90
2022-08-11T06:10:43.720Z,99.90
2022-08-11T06:13:14.541Z,99.90
2022-08-11T06:15:49.113Z,99.90
2022-08-11T06:18:16.777Z,99.90
2022-08-11T06:20:58.074Z,99.90
2022-08-11T06:23:31.415Z,99.90
2022-08-11T06:26:00.216Z,99.90
2022-08-11T06:28:37.085Z,99.90
2022-08-11T06:31:24.240Z,99.90
2022-08-11T06:33:50.935Z,99.90
2022-08-11T06:36:44.273Z,99.90
2022-08-11T06:39:44.962Z,99.90
2022-08-11T06:42:23.385Z,99.90
2022-08-11T06:45:08.319Z,99.90
2022-08-11T06:47:35.739Z,99.80
2022-08-11T06:50:24.841Z,99.40
2022-08-11T06:52:53.787Z,99.20
2022-08-11T06:55:56.858Z,99.10
2022-08-11T06:58:49.791Z,99.10
2022-08-11T07:01:23.349Z,98.80
2022-08-11T07:04:04.376Z,98.60
2022-08-11T07:06:39.893Z,98.30
2022-08-11T07:09:42.149Z,97.90
2022-08-11T07:12:38.903Z,97.80
2022-08-11T07:16:12.895Z,97.40
2022-08-11T07:18:42.845Z,97.40
2022-08-11T07:22:01.247Z,97.70
2022-08-11T07:25:01.613Z,97.00
2022-08-11T07:27:57.453Z,96.80
2022-08-11T07:30:25.730Z,96.70
2022-08-11T07:32:54.793Z,96.90
2022-08-11T07:35:30.347Z,96.80
2022-08-11T07:38:01.670Z,96.50
2022-08-11T07:40:30.704Z,96.40
2022-08-11T07:42:59.128Z,96.40
2022-08-11T07:45:46.052Z,96.00
2022-08-11T07:48:33.487Z,95.70
2022-08-11T07:51:20.880Z,95.60
2022-08-11T07:53:58.731Z,95.60
2022-08-11T07:56:54.474Z,95.10
2022-08-11T07:59:58.608Z,94.80
2022-08-11T08:02:46.164Z,94.70
2022-08-11T08:05:33.210Z,94.30
2022-08-11T08:08:18.793Z,94.50
2022-08-11T08:11:03.940Z,93.90
2022-08-11T08:13:52.261Z,93.70
2022-08-11T08:16:39.068Z,93.30
2022-08-11T08:19:06.252Z,92.70
2022-08-11T08:21:33.390Z,92.40
2022-08-11T08:24:00.950Z,92.20
2022-08-11T08:27:03.515Z,91.80
2022-08-11T08:29:53.720Z,91.80
2022-08-11T08:32:21.746Z,91.80
2022-08-11T08:34:52.746Z,91.90
2022-08-11T08:37:47.073Z,91.40
2022-08-11T08:40:09.562Z,91.20
2022-08-11T08:42:45.073Z,90.60
2022-08-11T08:45:16.299Z,90.20
2022-08-11T08:47:51.137Z,90.20
2022-08-11T08:50:27.876Z,90.00
2022-08-11T08:53:05.788Z,89.10
2022-08-11T08:55:33.703Z,88.30
2022-08-11T08:58:01.954Z,87.70
2022-08-11T09:00:40.803Z,86.50
2022-08-11T09:03:36.022Z,86.40
2022-08-11T09:05:56.298Z,86.50
2022-08-11T09:08:24.120Z,86.80
2022-08-11T09:11:13.761Z,84.40
2022-08-11T09:13:44.254Z,83.90
2022-08-11T09:16:12.083Z,82.60
2022-08-11T09:18:39.954Z,83.20
2022-08-11T09:21:07.542Z,82.00
2022-08-11T09:24:19.332Z,81.50
2022-08-11T09:27:00.214Z,81.90
2022-08-11T09:29:29.101Z,80.60
2022-08-11T09:31:57.427Z,79.70
2022-08-11T09:34:26.388Z,78.30
2022-08-11T09:37:53.301Z,77.50
2022-08-11T09:40:28.239Z,76.80
2022-08-11T09:43:20.761Z,76.00
2022-08-11T09:45:52.142Z,75.80
2022-08-11T09:48:21.842Z,75.60
2022-08-11T09:50:58.718Z,75.10
2022-08-11T09:53:37.305Z,75.30
2022-08-11T09:56:33.094Z,72.80
2022-08-11T09:59:01.189Z,72.40
2022-08-11T10:01:34.379Z,71.30
2022-08-11T10:04:08.021Z,71.60
2022-08-11T10:06:56.312Z,70.90
2022-08-11T10:09:25.100Z,69.20
2022-08-11T10:11:58.795Z,68.80
2022-08-11T10:14:45.913Z,66.60
2022-08-11T10:17:15.110Z,65.60
2022-08-11T10:19:43.495Z,64.20
2022-08-11T10:22:32.142Z,64.80
2022-08-11T10:25:20.059Z,64.10
2022-08-11T10:28:30.677Z,63.90
2022-08-11T10:31:05.850Z,64.80
2022-08-11T10:33:59.028Z,64.30
2022-08-11T10:36:48.236Z,64.40
2022-08-11T10:39:18.471Z,64.40
2022-08-11T10:42:09.615Z,63.20
2022-08-11T10:44:46.198Z,60.60
2022-08-11T10:47:33.402Z,60.80
2022-08-11T10:50:23.515Z,61.60
2022-08-11T10:53:10.176Z,62.30
2022-08-11T10:55:58.571Z,59.80
2022-08-11T10:58:44.778Z,59.90
2022-08-11T11:01:12.965Z,58.40
2022-08-11T11:03:40.796Z,59.30
2022-08-11T11:06:29.489Z,59.80
2022-08-11T11:09:08.521Z,59.50
2022-08-11T11:12:01.992Z,58.50
2022-08-11T11:14:56.625Z,58.30
2022-08-11T11:17:56.085Z,58.10
2022-08-11T11:20:54.638Z,57.60
2022-08-11T11:23:36.775Z,58.00
2022-08-11T11:26:40.261Z,57.10
2022-08-11T11:29:27.026Z,55.60
2022-08-11T11:31:59.691Z,54.80
2022-08-11T11:34:32.247Z,54.50
2022-08-11T11:37:01.166Z,54.40
2022-08-11T11:39:31.265Z,54.70
2022-08-11T11:42:04.378Z,54.60
2022-08-11T11:44:32.940Z,54.40
2022-08-11T11:47:01.810Z,54.60
2022-08-11T11:49:30.256Z,55.10
2022-08-11T11:51:59.335Z,56.10
2022-08-11T11:54:33.731Z,54.40
2022-08-11T11:57:21.640Z,54.60
2022-08-11T12:00:11.330Z,54.30
2022-08-11T12:02:40.720Z,54.10
2022-08-11T12:05:10.197Z,53.10
2022-08-11T12:08:10.470Z,53.80
2022-08-11T12:10:47.843Z,52.90
2022-08-11T12:13:35.622Z,50.90
2022-08-11T12:16:34.931Z,50.80
2022-08-11T12:19:03.803Z,51.10
2022-08-11T12:21:31.102Z,51.10
2022-08-11T12:24:19.027Z,51.20
2022-08-11T12:27:01.403Z,51.20
2022-08-11T12:29:41.259Z,50.80
2022-08-11T12:32:10.832Z,50.60
2022-08-11T12:34:37.550Z,50.10
2022-08-11T12:37:06.970Z,51.40
2022-08-11T12:40:10.742Z,49.40
2022-08-11T12:43:03.992Z,50.10
2022-08-11T12:45:38.301Z,49.00
2022-08-11T12:49:01.039Z,49.20
2022-08-11T12:52:12.109Z,48.60
2022-08-11T12:54:52.063Z,49.50
2022-08-11T12:57:46.236Z,49.30
2022-08-11T13:00:32.883Z,49.50
2022-08-11T13:03:19.583Z,50.70
2022-08-11T13:05:49.358Z,49.40
2022-08-11T13:08:17.376Z,49.70
2022-08-11T13:11:05.476Z,50.20
2022-08-11T13:13:54.661Z,49.70
2022-08-11T13:16:22.475Z,49.00
2022-08-11T13:18:50.826Z,48.90
2022-08-11T13:21:21.529Z,47.80
2022-08-11T13:24:01.294Z,48.30
2022-08-11T13:26:47.805Z,48.00
2022-08-11T13:29:25.628Z,48.60
2022-08-11T13:32:00.576Z,48.40
2022-08-11T13:34:31.394Z,48.40
2022-08-11T13:37:01.087Z,48.00
2022-08-11T13:39:31.025Z,48.80
2022-08-11T13:42:00.396Z,48.60
2022-08-11T13:44:36.065Z,48.20
2022-08-11T13:47:06.246Z,48.00
2022-08-11T13:49:39.759Z,48.50
2022-08-11T13:52:12.927Z,48.30
2022-08-11T13:54:41.178Z,49.70
2022-08-11T13:57:13.770Z,47.90
2022-08-11T14:00:09.704Z,48.20
2022-08-11T14:02:45.670Z,47.70
2022-08-11T14:05:15.753Z,47.20
2022-08-11T14:07:52.037Z,47.80
2022-08-11T14:10:25.598Z,47.60
2022-08-11T14:13:22.513Z,48.40
2022-08-11T14:15:52.252Z,47.20
2022-08-11T14:18:22.534Z,47.20
2022-08-11T14:21:14.509Z,47.70
2022-08-11T14:23:46.275Z,47.80
2022-08-11T14:26:28.535Z,47.70
2022-08-11T14:29:08.273Z,47.80
2022-08-11T14:31:38.904Z,47.70
2022-08-11T14:34:08.524Z,47.50
2022-08-11T14:36:42.080Z,46.90
2022-08-11T14:39:12.951Z,47.10
2022-08-11T14:42:11.065Z,47.30
2022-08-11T14:45:04.168Z,47.10
2022-08-11T14:47:36.461Z,47.40
2022-08-11T14:50:10.942Z,46.90
2022-08-11T14:52:44.025Z,47.30
2022-08-11T14:55:30.592Z,47.10
2022-08-11T14:57:58.362Z,46.80
2022-08-11T15:00:25.907Z,47.60
2022-08-11T15:03:10.467Z,47.40
2022-08-11T15:06:02.708Z,47.20
2022-08-11T15:08:53.372Z,47.40
2022-08-11T15:11:47.612Z,46.50
2022-08-11T15:14:35.349Z,46.70
2022-08-11T15:17:09.182Z,46.70
2022-08-11T15:19:59.028Z,47.30
2022-08-11T15:22:44.603Z,47.70
2022-08-11T15:25:11.801Z,47.30
2022-08-11T15:27:58.457Z,46.90
2022-08-11T15:30:45.871Z,46.70
2022-08-11T15:33:35.647Z,47.30
2022-08-11T15:36:26.061Z,47.20
2022-08-11T15:39:03.543Z,47.00
2022-08-11T15:41:59.237Z,47.00
2022-08-11T15:45:05.729Z,47.60
2022-08-11T15:47:48.677Z,47.40
2022-08-11T15:50:20.127Z,47.20
2022-08-11T15:53:16.383Z,47.00
2022-08-11T15:55:45.166Z,47.10
2022-08-11T15:58:32.238Z,46.70
2022-08-11T16:01:19.611Z,46.90
2022-08-11T16:04:13.870Z,47.10
2022-08-11T16:06:58.437Z,46.80
2022-08-11T16:09:33.811Z,46.90
2022-08-11T16:12:22.204Z,46.90
2022-08-11T16:15:14.191Z,46.70
2022-08-11T16:18:05.016Z,46.70
2022-08-11T16:20:33.558Z,46.80
2022-08-11T16:23:05.460Z,46.80
2022-08-11T16:27:06.118Z,46.60
2022-08-11T16:28:24.982Z,47.10
2022-08-11T16:30:53.657Z,47.20
2022-08-11T16:33:49.087Z,47.50
2022-08-11T16:36:29.266Z,47.40
2022-08-11T16:38:57.773Z,47.40
2022-08-11T16:41:47.214Z,47.70
2022-08-11T16:44:37.573Z,47.50
2022-08-11T16:47:12.965Z,47.80
2022-08-11T16:49:52.135Z,47.30
2022-08-11T16:52:20.569Z,47.80
2022-08-11T16:54:47.650Z,47.60
2022-08-11T16:57:44.534Z,47.60
2022-08-11T17:00:15.338Z,47.70
2022-08-11T17:03:10.531Z,47.60
2022-08-11T17:06:03.150Z,47.60
2022-08-11T17:08:57.089Z,47.10
2022-08-11T17:11:46.132Z,47.30
2022-08-11T17:14:38.322Z,47.40
2022-08-11T17:17:13.246Z,47.80
2022-08-11T17:20:40.768Z,48.10
2022-08-11T17:22:56.224Z,48.10
2022-08-11T17:25:28.206Z,48.10
2022-08-11T17:27:56.707Z,48.20
2022-08-11T17:30:45.467Z,48.50
2022-08-11T17:33:32.256Z,48.30
2022-08-11T17:36:00.584Z,47.90
2022-08-11T17:38:28.547Z,48.50
2022-08-11T17:41:23.453Z,48.40
2022-08-11T17:44:11.078Z,48.30
2022-08-11T17:47:00.120Z,48.40
2022-08-11T17:49:37.496Z,48.60
2022-08-11T17:52:25.400Z,48.20
2022-08-11T17:55:13.956Z,48.80
2022-08-11T17:58:01.144Z,48.40
2022-08-11T18:00:28.162Z,48.40
2022-08-11T18:03:15.434Z,48.90
2022-08-11T18:05:44.486Z,49.20
2022-08-11T18:08:32.914Z,49.50
2022-08-11T18:12:06.208Z,49.30
2022-08-11T18:14:27.361Z,49.50
2022-08-11T18:17:12.628Z,50.10
2022-08-11T18:19:58.295Z,50.80
2022-08-11T18:22:54.785Z,49.90
2022-08-11T18:25:46.109Z,50.90
2022-08-11T18:28:34.749Z,51.30
2022-08-11T18:31:23.460Z,52.80
2022-08-11T18:34:13.138Z,53.90
2022-08-11T18:37:24.784Z,54.30
2022-08-11T18:40:18.755Z,55.00
2022-08-11T18:43:06.786Z,55.90
2022-08-11T18:46:06.138Z,56.40
2022-08-11T18:48:55.489Z,56.80
2022-08-11T18:51:43.037Z,57.70
2022-08-11T18:54:30.775Z,57.20
2022-08-11T18:57:20.773Z,58.20
2022-08-11T19:00:08.562Z,58.50
2022-08-11T19:02:57.378Z,58.80
2022-08-11T19:06:35.220Z,59.10
2022-08-11T19:08:56.067Z,59.00
2022-08-11T19:11:43.709Z,59.50
2022-08-11T19:14:31.955Z,60.20
2022-08-11T19:17:44.052Z,60.20
2022-08-11T19:20:29.612Z,60.20
2022-08-11T19:23:16.070Z,60.40
2022-08-11T19:26:06.237Z,60.60
2022-08-11T19:28:53.555Z,60.60
2022-08-11T19:31:44.467Z,60.40
2022-08-11T19:34:34.583Z,60.60
2022-08-11T19:37:24.806Z,60.80
2022-08-11T19:40:13.579Z,61.10
2022-08-11T19:43:01.544Z,61.70
2022-08-11T19:45:52.344Z,61.80
2022-08-11T19:48:40.710Z,61.50
2022-08-11T19:51:28.712Z,61.70
2022-08-11T19:54:15.022Z,62.20
2022-08-11T19:57:01.781Z,62.50
2022-08-11T19:59:48.218Z,62.50
2022-08-11T20:02:34.021Z,62.60
2022-08-11T20:05:19.926Z,62.60
2022-08-11T20:08:06.804Z,62.90
2022-08-11T20:10:54.484Z,63.30
2022-08-11T20:13:43.408Z,63.20
2022-08-11T20:16:32.693Z,63.50
2022-08-11T20:19:25.975Z,64.00
2022-08-11T20:22:27.028Z,64.80
2022-08-11T20:25:13.836Z,64.00
2022-08-11T20:28:01.925Z,64.30
2022-08-11T20:30:51.778Z,64.30
2022-08-11T20:33:38.754Z,64.80
2022-08-11T20:36:26.249Z,64.60
2022-08-11T20:39:13.948Z,64.70
2022-08-11T20:42:00.554Z,64.90
2022-08-11T20:44:48.203Z,64.60
2022-08-11T20:47:59.674Z,64.70
2022-08-11T20:50:42.429Z,64.50
2022-08-11T20:53:35.664Z,64.90
2022-08-11T20:56:28.641Z,65.30
2022-08-11T20:59:18.861Z,65.40
2022-08-11T21:02:09.733Z,65.80
2022-08-11T21:04:56.587Z,65.80
2022-08-11T21:07:50.313Z,66.50
2022-08-11T21:10:51.243Z,66.50
2022-08-11T21:13:51.588Z,66.70
2022-08-11T21:16:47.384Z,67.80
2022-08-11T21:20:07.907Z,68.00
2022-08-11T21:23:08.148Z,68.50
2022-08-11T21:26:02.501Z,68.60
2022-08-11T21:28:48.688Z,68.60
2022-08-11T21:31:36.470Z,68.80
2022-08-11T21:34:23.020Z,69.00
2022-08-11T21:37:10.383Z,69.40
2022-08-11T21:39:56.880Z,69.40
2022-08-11T21:42:45.059Z,69.50
2022-08-11T21:45:32.918Z,69.70
2022-08-11T21:48:19.774Z,69.40
2022-08-11T21:51:05.017Z,69.80
2022-08-11T21:53:52.352Z,70.10
2022-08-11T21:56:39.835Z,70.40
2022-08-11T22:02:34.777Z,70.80
2022-08-11T22:05:22.106Z,71.10
2022-08-11T22:08:11.867Z,71.30
2022-08-11T22:10:58.376Z,71.70
2022-08-11T22:14:05.925Z,71.80
2022-08-11T22:16:49.468Z,71.90
2022-08-11T22:19:36.458Z,71.30
2022-08-11T22:22:26.198Z,72.00
2022-08-11T22:25:16.642Z,72.30
2022-08-11T22:28:04.372Z,72.60
2022-08-11T22:30:49.708Z,72.70
2022-08-11T22:33:36.210Z,72.60
2022-08-11T22:36:26.593Z,73.60
2022-08-11T22:39:14.230Z,73.60
2022-08-11T22:41:59.930Z,73.70
2022-08-11T22:44:45.609Z,74.10
2022-08-11T22:47:38.403Z,74.50
2022-08-11T22:50:27.238Z,74.80
2022-08-11T22:53:14.863Z,75.10
2022-08-11T22:56:00.480Z,75.30
2022-08-11T22:58:46.175Z,75.40
2022-08-11T23:01:35.904Z,75.90
2022-08-11T23:04:22.166Z,76.10
2022-08-11T23:07:08.237Z,76.50
2022-08-11T23:09:54.272Z,76.60
2022-08-11T23:12:40.178Z,77.00
2022-08-11T23:15:27.817Z,77.40
2022-08-11T23:18:13.926Z,77.50
2022-08-11T23:21:00.109Z,77.80
2022-08-11T23:23:47.419Z,77.90
2022-08-11T23:26:35.359Z,77.50
2022-08-11T23:29:22.098Z,77.50
2022-08-11T23:32:10.188Z,77.20
2022-08-11T23:35:37.343Z,77.70
2022-08-11T23:38:04.969Z,77.90
2022-08-11T23:40:50.231Z,78.00
2022-08-11T23:43:39.996Z,78.00
2022-08-11T23:46:25.984Z,78.20
2022-08-11T23:49:22.732Z,78.30
2022-08-11T23:52:09.345Z,78.60
2022-08-11T23:54:54.763Z,78.30
2022-08-11T23:57:47.934Z,79.00
